Marsteller, Pennsylvania
Current Conditions -  °F | °C
As of 11:15 AM on Monday 26 Jan 2015 (Local Time) from KIDI Reporting Station
Haze Haze  
Wind Chill: 15°   Ceiling: Unl
Heat Index: 25°   Visibility: 1mi
Dew Point: 21°   Wind: 9mph
Humidity: 86%   Direction: 100°E
Pressure: 29.76"   Gusts: NA
Location:  40.65°N, 78.81°W
Report Text: KIDI 261615Z AUTO 10008KT 1SM BR CLR M04/M06 A2976 RMK A01
Loading
Personal Weather Stations






























Interactive Weather Map New forecast layout! Learn more

10-Day Weather Forecast

Advertisements
Track Severe Weather on mobile